sensor_id;sensor_type;location;lat;lon;timestamp;P1;durP1;ratioP1;P2;durP2;ratioP2
54384;SDS011;40284;52.878;5.998;2023-08-06T00:00:41;16.65;;;13.45;;
54384;SDS011;40284;52.878;5.998;2023-08-06T00:03:07;15.95;;;12.40;;
54384;SDS011;40284;52.878;5.998;2023-08-06T00:05:33;15.63;;;14.02;;
54384;SDS011;40284;52.878;5.998;2023-08-06T00:07:59;15.30;;;13.70;;
54384;SDS011;40284;52.878;5.998;2023-08-06T00:10:25;15.60;;;13.18;;
54384;SDS011;40284;52.878;5.998;2023-08-06T00:12:51;14.82;;;13.32;;
54384;SDS011;40284;52.878;5.998;2023-08-06T00:15:17;14.63;;;13.13;;
54384;SDS011;40284;52.878;5.998;2023-08-06T00:17:44;16.40;;;13.55;;
54384;SDS011;40284;52.878;5.998;2023-08-06T00:20:10;15.88;;;14.38;;
54384;SDS011;40284;52.878;5.998;2023-08-06T00:22:36;16.30;;;14.43;;
54384;SDS011;40284;52.878;5.998;2023-08-06T00:25:03;15.38;;;13.77;;
54384;SDS011;40284;52.878;5.998;2023-08-06T00:27:29;14.90;;;13.18;;
54384;SDS011;40284;52.878;5.998;2023-08-06T00:29:55;15.02;;;13.30;;
54384;SDS011;40284;52.878;5.998;2023-08-06T00:32:22;17.77;;;14.55;;
54384;SDS011;40284;52.878;5.998;2023-08-06T00:34:48;15.32;;;13.15;;
54384;SDS011;40284;52.878;5.998;2023-08-06T00:37:17;15.60;;;13.90;;
54384;SDS011;40284;52.878;5.998;2023-08-06T00:39:43;15.32;;;13.65;;
54384;SDS011;40284;52.878;5.998;2023-08-06T00:42:10;16.08;;;14.38;;
54384;SDS011;40284;52.878;5.998;2023-08-06T00:44:36;17.40;;;14.43;;
54384;SDS011;40284;52.878;5.998;2023-08-06T00:47:03;15.20;;;13.65;;
54384;SDS011;40284;52.878;5.998;2023-08-06T00:49:29;15.73;;;13.73;;
54384;SDS011;40284;52.878;5.998;2023-08-06T00:51:55;16.35;;;13.48;;
54384;SDS011;40284;52.878;5.998;2023-08-06T00:54:22;14.98;;;12.60;;
54384;SDS011;40284;52.878;5.998;2023-08-06T00:56:49;18.52;;;13.43;;
54384;SDS011;40284;52.878;5.998;2023-08-06T00:59:15;14.88;;;12.13;;
54384;SDS011;40284;52.878;5.998;2023-08-06T01:01:41;14.68;;;13.10;;
54384;SDS011;40284;52.878;5.998;2023-08-06T01:04:07;13.98;;;12.48;;
54384;SDS011;40284;52.878;5.998;2023-08-06T01:06:52;17.02;;;13.40;;
54384;SDS011;40284;52.878;5.998;2023-08-06T01:11:59;15.10;;;12.80;;
54384;SDS011;40284;52.878;5.998;2023-08-06T01:14:28;14.35;;;12.23;;
54384;SDS011;40284;52.878;5.998;2023-08-06T01:16:56;15.02;;;12.65;;
54384;SDS011;40284;52.878;5.998;2023-08-06T01:19:24;15.73;;;13.65;;
54384;SDS011;40284;52.878;5.998;2023-08-06T01:21:50;14.93;;;12.38;;
54384;SDS011;40284;52.878;5.998;2023-08-06T01:24:16;17.33;;;12.77;;
54384;SDS011;40284;52.878;5.998;2023-08-06T01:26:43;15.98;;;11.75;;
54384;SDS011;40284;52.878;5.998;2023-08-06T01:29:19;15.65;;;12.65;;
54384;SDS011;40284;52.878;5.998;2023-08-06T01:31:50;13.32;;;11.05;;
54384;SDS011;40284;52.878;5.998;2023-08-06T01:34:17;14.80;;;13.30;;
54384;SDS011;40284;52.878;5.998;2023-08-06T01:36:44;13.23;;;11.82;;
54384;SDS011;40284;52.878;5.998;2023-08-06T01:39:10;16.52;;;12.93;;
54384;SDS011;40284;52.878;5.998;2023-08-06T01:41:37;14.82;;;12.70;;
54384;SDS011;40284;52.878;5.998;2023-08-06T01:44:03;15.48;;;12.35;;
54384;SDS011;40284;52.878;5.998;2023-08-06T01:46:29;13.60;;;11.52;;
54384;SDS011;40284;52.878;5.998;2023-08-06T01:48:55;15.35;;;12.88;;
54384;SDS011;40284;52.878;5.998;2023-08-06T01:51:21;12.82;;;11.43;;
54384;SDS011;40284;52.878;5.998;2023-08-06T01:53:47;14.25;;;11.38;;
54384;SDS011;40284;52.878;5.998;2023-08-06T01:56:13;14.32;;;11.32;;
54384;SDS011;40284;52.878;5.998;2023-08-06T01:58:39;16.23;;;12.23;;
54384;SDS011;40284;52.878;5.998;2023-08-06T02:01:05;14.95;;;12.50;;
54384;SDS011;40284;52.878;5.998;2023-08-06T02:03:31;16.67;;;12.07;;
54384;SDS011;40284;52.878;5.998;2023-08-06T02:05:57;13.52;;;12.07;;
54384;SDS011;40284;52.878;5.998;2023-08-06T02:08:23;15.55;;;11.80;;
54384;SDS011;40284;52.878;5.998;2023-08-06T02:10:49;13.70;;;11.18;;
54384;SDS011;40284;52.878;5.998;2023-08-06T02:13:15;14.30;;;11.65;;
54384;SDS011;40284;52.878;5.998;2023-08-06T02:15:42;14.45;;;11.70;;
54384;SDS011;40284;52.878;5.998;2023-08-06T02:18:09;12.45;;;11.15;;
54384;SDS011;40284;52.878;5.998;2023-08-06T02:20:35;12.95;;;11.18;;
54384;SDS011;40284;52.878;5.998;2023-08-06T02:23:01;15.77;;;11.93;;
54384;SDS011;40284;52.878;5.998;2023-08-06T02:25:27;15.85;;;11.63;;
54384;SDS011;40284;52.878;5.998;2023-08-06T02:27:53;13.98;;;11.38;;
54384;SDS011;40284;52.878;5.998;2023-08-06T02:30:19;15.02;;;12.05;;
54384;SDS011;40284;52.878;5.998;2023-08-06T02:32:45;17.73;;;10.85;;
54384;SDS011;40284;52.878;5.998;2023-08-06T02:35:11;12.32;;;11.10;;
54384;SDS011;40284;52.878;5.998;2023-08-06T02:37:37;15.65;;;11.38;;
54384;SDS011;40284;52.878;5.998;2023-08-06T02:40:03;14.45;;;11.40;;
54384;SDS011;40284;52.878;5.998;2023-08-06T02:42:30;15.80;;;11.90;;
54384;SDS011;40284;52.878;5.998;2023-08-06T02:44:56;13.63;;;11.45;;
54384;SDS011;40284;52.878;5.998;2023-08-06T02:47:22;12.57;;;11.05;;
54384;SDS011;40284;52.878;5.998;2023-08-06T02:49:48;13.93;;;10.88;;
54384;SDS011;40284;52.878;5.998;2023-08-06T02:52:14;13.55;;;10.77;;
54384;SDS011;40284;52.878;5.998;2023-08-06T02:54:40;13.65;;;10.02;;
54384;SDS011;40284;52.878;5.998;2023-08-06T02:57:06;13.48;;;11.00;;
54384;SDS011;40284;52.878;5.998;2023-08-06T02:59:33;11.98;;;10.73;;
54384;SDS011;40284;52.878;5.998;2023-08-06T03:01:59;18.35;;;11.48;;
54384;SDS011;40284;52.878;5.998;2023-08-06T03:04:25;15.88;;;11.02;;
54384;SDS011;40284;52.878;5.998;2023-08-06T03:06:51;12.07;;;10.77;;
54384;SDS011;40284;52.878;5.998;2023-08-06T03:09:17;13.55;;;11.43;;
54384;SDS011;40284;52.878;5.998;2023-08-06T03:11:44;12.25;;;10.75;;
54384;SDS011;40284;52.878;5.998;2023-08-06T03:14:10;13.20;;;11.00;;
54384;SDS011;40284;52.878;5.998;2023-08-06T03:16:36;13.82;;;11.25;;
54384;SDS011;40284;52.878;5.998;2023-08-06T03:19:02;14.63;;;11.15;;
54384;SDS011;40284;52.878;5.998;2023-08-06T03:21:28;14.65;;;11.80;;
54384;SDS011;40284;52.878;5.998;2023-08-06T03:23:54;14.98;;;11.15;;
54384;SDS011;40284;52.878;5.998;2023-08-06T03:26:20;12.60;;;10.88;;
54384;SDS011;40284;52.878;5.998;2023-08-06T03:28:46;13.00;;;10.80;;
54384;SDS011;40284;52.878;5.998;2023-08-06T03:31:12;15.73;;;11.30;;
54384;SDS011;40284;52.878;5.998;2023-08-06T03:33:38;12.65;;;10.77;;
54384;SDS011;40284;52.878;5.998;2023-08-06T03:36:04;14.93;;;10.48;;
54384;SDS011;40284;52.878;5.998;2023-08-06T03:38:31;13.73;;;11.40;;
54384;SDS011;40284;52.878;5.998;2023-08-06T03:40:57;17.00;;;11.55;;
54384;SDS011;40284;52.878;5.998;2023-08-06T03:43:23;13.48;;;10.45;;
54384;SDS011;40284;52.878;5.998;2023-08-06T03:45:49;16.98;;;10.85;;
54384;SDS011;40284;52.878;5.998;2023-08-06T03:48:15;13.65;;;10.57;;
54384;SDS011;40284;52.878;5.998;2023-08-06T03:50:41;14.82;;;10.50;;
54384;SDS011;40284;52.878;5.998;2023-08-06T03:53:07;17.42;;;10.88;;
54384;SDS011;40284;52.878;5.998;2023-08-06T03:55:33;13.23;;;10.40;;
54384;SDS011;40284;52.878;5.998;2023-08-06T03:57:59;14.23;;;10.82;;
54384;SDS011;40284;52.878;5.998;2023-08-06T04:00:26;11.38;;;9.70;;
54384;SDS011;40284;52.878;5.998;2023-08-06T04:02:52;12.93;;;11.05;;
54384;SDS011;40284;52.878;5.998;2023-08-06T04:05:18;14.32;;;10.95;;
54384;SDS011;40284;52.878;5.998;2023-08-06T04:07:44;13.18;;;10.15;;
54384;SDS011;40284;52.878;5.998;2023-08-06T04:10:10;12.80;;;10.23;;
54384;SDS011;40284;52.878;5.998;2023-08-06T04:12:37;11.85;;;10.63;;
54384;SDS011;40284;52.878;5.998;2023-08-06T04:15:04;15.93;;;10.35;;
54384;SDS011;40284;52.878;5.998;2023-08-06T04:17:30;19.60;;;10.23;;
54384;SDS011;40284;52.878;5.998;2023-08-06T04:19:56;14.95;;;10.48;;
54384;SDS011;40284;52.878;5.998;2023-08-06T04:22:24;11.18;;;10.00;;
54384;SDS011;40284;52.878;5.998;2023-08-06T04:24:50;11.18;;;10.07;;
54384;SDS011;40284;52.878;5.998;2023-08-06T04:27:17;12.13;;;10.32;;
54384;SDS011;40284;52.878;5.998;2023-08-06T04:29:43;12.60;;;9.75;;
54384;SDS011;40284;52.878;5.998;2023-08-06T04:32:09;11.02;;;9.93;;
54384;SDS011;40284;52.878;5.998;2023-08-06T04:34:36;13.57;;;11.23;;
54384;SDS011;40284;52.878;5.998;2023-08-06T04:37:03;14.55;;;11.63;;
54384;SDS011;40284;52.878;5.998;2023-08-06T04:39:29;13.55;;;10.35;;
54384;SDS011;40284;52.878;5.998;2023-08-06T04:41:55;12.23;;;9.25;;
54384;SDS011;40284;52.878;5.998;2023-08-06T04:44:22;11.48;;;10.27;;
54384;SDS011;40284;52.878;5.998;2023-08-06T04:46:48;15.32;;;10.60;;
54384;SDS011;40284;52.878;5.998;2023-08-06T04:49:15;14.65;;;10.45;;
54384;SDS011;40284;52.878;5.998;2023-08-06T04:51:41;15.05;;;10.55;;
54384;SDS011;40284;52.878;5.998;2023-08-06T04:54:07;12.52;;;11.13;;
54384;SDS011;40284;52.878;5.998;2023-08-06T04:56:33;13.50;;;10.55;;
54384;SDS011;40284;52.878;5.998;2023-08-06T04:58:59;12.63;;;10.73;;
54384;SDS011;40284;52.878;5.998;2023-08-06T05:01:25;11.48;;;10.25;;
54384;SDS011;40284;52.878;5.998;2023-08-06T05:03:51;12.75;;;11.00;;
54384;SDS011;40284;52.878;5.998;2023-08-06T05:06:17;12.60;;;10.82;;
54384;SDS011;40284;52.878;5.998;2023-08-06T05:08:43;11.48;;;10.32;;
54384;SDS011;40284;52.878;5.998;2023-08-06T05:11:09;13.82;;;10.50;;
54384;SDS011;40284;52.878;5.998;2023-08-06T05:13:35;15.75;;;11.02;;
54384;SDS011;40284;52.878;5.998;2023-08-06T05:16:01;13.05;;;11.15;;
54384;SDS011;40284;52.878;5.998;2023-08-06T05:18:28;15.02;;;11.40;;
54384;SDS011;40284;52.878;5.998;2023-08-06T05:20:55;13.73;;;10.95;;
54384;SDS011;40284;52.878;5.998;2023-08-06T05:23:22;13.82;;;10.23;;
54384;SDS011;40284;52.878;5.998;2023-08-06T05:25:48;14.05;;;10.98;;
54384;SDS011;40284;52.878;5.998;2023-08-06T05:28:14;14.95;;;10.88;;
54384;SDS011;40284;52.878;5.998;2023-08-06T05:30:40;11.30;;;10.10;;
54384;SDS011;40284;52.878;5.998;2023-08-06T05:33:06;15.23;;;10.40;;
54384;SDS011;40284;52.878;5.998;2023-08-06T05:35:33;12.90;;;9.82;;
54384;SDS011;40284;52.878;5.998;2023-08-06T05:37:59;12.35;;;10.55;;
54384;SDS011;40284;52.878;5.998;2023-08-06T05:40:25;11.35;;;10.15;;
54384;SDS011;40284;52.878;5.998;2023-08-06T05:42:53;13.57;;;11.02;;
54384;SDS011;40284;52.878;5.998;2023-08-06T05:45:19;13.68;;;10.40;;
54384;SDS011;40284;52.878;5.998;2023-08-06T05:47:45;12.23;;;10.93;;
54384;SDS011;40284;52.878;5.998;2023-08-06T05:50:11;14.15;;;10.20;;
54384;SDS011;40284;52.878;5.998;2023-08-06T05:52:37;12.93;;;11.00;;
54384;SDS011;40284;52.878;5.998;2023-08-06T05:55:03;13.30;;;10.48;;
54384;SDS011;40284;52.878;5.998;2023-08-06T05:57:29;11.70;;;10.45;;
54384;SDS011;40284;52.878;5.998;2023-08-06T05:59:55;12.23;;;10.45;;
54384;SDS011;40284;52.878;5.998;2023-08-06T06:02:21;12.38;;;10.32;;
54384;SDS011;40284;52.878;5.998;2023-08-06T06:04:47;11.43;;;10.23;;
54384;SDS011;40284;52.878;5.998;2023-08-06T06:07:14;11.63;;;10.43;;
54384;SDS011;40284;52.878;5.998;2023-08-06T06:09:40;12.60;;;10.60;;
54384;SDS011;40284;52.878;5.998;2023-08-06T06:12:06;12.30;;;10.85;;
54384;SDS011;40284;52.878;5.998;2023-08-06T06:14:32;11.98;;;10.50;;
54384;SDS011;40284;52.878;5.998;2023-08-06T06:16:58;13.60;;;10.43;;
54384;SDS011;40284;52.878;5.998;2023-08-06T06:19:25;13.45;;;10.63;;
54384;SDS011;40284;52.878;5.998;2023-08-06T06:21:52;12.68;;;10.52;;
54384;SDS011;40284;52.878;5.998;2023-08-06T06:24:19;10.90;;;9.68;;
54384;SDS011;40284;52.878;5.998;2023-08-06T06:26:45;10.95;;;9.80;;
54384;SDS011;40284;52.878;5.998;2023-08-06T06:29:11;10.82;;;9.63;;
54384;SDS011;40284;52.878;5.998;2023-08-06T06:31:37;13.27;;;10.73;;
54384;SDS011;40284;52.878;5.998;2023-08-06T06:34:03;15.10;;;11.27;;
54384;SDS011;40284;52.878;5.998;2023-08-06T06:36:29;11.75;;;9.32;;
54384;SDS011;40284;52.878;5.998;2023-08-06T06:38:55;12.88;;;9.52;;
54384;SDS011;40284;52.878;5.998;2023-08-06T06:41:21;13.02;;;9.90;;
54384;SDS011;40284;52.878;5.998;2023-08-06T06:43:47;11.02;;;9.93;;
54384;SDS011;40284;52.878;5.998;2023-08-06T06:46:13;11.02;;;9.93;;
54384;SDS011;40284;52.878;5.998;2023-08-06T06:48:39;13.68;;;10.30;;
54384;SDS011;40284;52.878;5.998;2023-08-06T06:51:05;11.77;;;10.32;;
54384;SDS011;40284;52.878;5.998;2023-08-06T06:53:31;10.82;;;9.63;;
54384;SDS011;40284;52.878;5.998;2023-08-06T06:56:01;10.32;;;9.23;;
54384;SDS011;40284;52.878;5.998;2023-08-06T06:58:28;10.75;;;9.60;;
54384;SDS011;40284;52.878;5.998;2023-08-06T07:00:54;12.55;;;9.02;;
54384;SDS011;40284;52.878;5.998;2023-08-06T07:03:20;12.43;;;9.48;;
54384;SDS011;40284;52.878;5.998;2023-08-06T07:05:46;15.68;;;10.73;;
54384;SDS011;40284;52.878;5.998;2023-08-06T07:08:12;15.50;;;10.60;;
54384;SDS011;40284;52.878;5.998;2023-08-06T07:10:40;12.02;;;10.63;;
54384;SDS011;40284;52.878;5.998;2023-08-06T07:13:07;12.68;;;9.35;;
54384;SDS011;40284;52.878;5.998;2023-08-06T07:15:33;11.43;;;10.23;;
54384;SDS011;40284;52.878;5.998;2023-08-06T07:17:59;10.40;;;9.40;;
54384;SDS011;40284;52.878;5.998;2023-08-06T07:20:25;12.65;;;9.98;;
54384;SDS011;40284;52.878;5.998;2023-08-06T07:22:54;12.75;;;10.57;;
54384;SDS011;40284;52.878;5.998;2023-08-06T07:25:20;12.15;;;10.02;;
54384;SDS011;40284;52.878;5.998;2023-08-06T07:27:46;12.98;;;10.95;;
54384;SDS011;40284;52.878;5.998;2023-08-06T07:30:12;11.80;;;10.10;;
54384;SDS011;40284;52.878;5.998;2023-08-06T07:32:38;10.98;;;9.85;;
54384;SDS011;40284;52.878;5.998;2023-08-06T07:35:04;10.30;;;9.30;;
54384;SDS011;40284;52.878;5.998;2023-08-06T07:37:33;10.55;;;9.50;;
54384;SDS011;40284;52.878;5.998;2023-08-06T07:39:59;10.88;;;9.77;;
54384;SDS011;40284;52.878;5.998;2023-08-06T07:42:25;10.18;;;9.15;;
54384;SDS011;40284;52.878;5.998;2023-08-06T07:44:51;12.35;;;9.07;;
54384;SDS011;40284;52.878;5.998;2023-08-06T07:47:18;11.85;;;9.32;;
54384;SDS011;40284;52.878;5.998;2023-08-06T07:49:44;9.45;;;8.35;;
54384;SDS011;40284;52.878;5.998;2023-08-06T07:52:10;10.75;;;9.27;;
54384;SDS011;40284;52.878;5.998;2023-08-06T07:54:36;10.20;;;9.30;;
54384;SDS011;40284;52.878;5.998;2023-08-06T07:57:02;10.88;;;9.80;;
54384;SDS011;40284;52.878;5.998;2023-08-06T07:59:28;13.43;;;9.40;;
54384;SDS011;40284;52.878;5.998;2023-08-06T08:01:54;10.40;;;9.32;;
54384;SDS011;40284;52.878;5.998;2023-08-06T08:04:20;11.35;;;10.02;;
54384;SDS011;40284;52.878;5.998;2023-08-06T08:06:47;12.25;;;10.40;;
54384;SDS011;40284;52.878;5.998;2023-08-06T08:09:13;11.48;;;10.15;;
54384;SDS011;40284;52.878;5.998;2023-08-06T08:11:40;11.57;;;10.20;;
54384;SDS011;40284;52.878;5.998;2023-08-06T08:14:06;12.13;;;9.95;;
54384;SDS011;40284;52.878;5.998;2023-08-06T08:16:32;11.88;;;10.70;;
54384;SDS011;40284;52.878;5.998;2023-08-06T08:18:58;12.27;;;10.85;;
54384;SDS011;40284;52.878;5.998;2023-08-06T08:21:24;10.63;;;9.57;;
54384;SDS011;40284;52.878;5.998;2023-08-06T08:23:50;12.18;;;10.88;;
54384;SDS011;40284;52.878;5.998;2023-08-06T08:26:17;12.20;;;10.93;;
54384;SDS011;40284;52.878;5.998;2023-08-06T08:28:43;12.05;;;10.45;;
54384;SDS011;40284;52.878;5.998;2023-08-06T08:31:09;14.90;;;11.55;;
54384;SDS011;40284;52.878;5.998;2023-08-06T08:33:36;13.40;;;12.13;;
54384;SDS011;40284;52.878;5.998;2023-08-06T08:36:02;13.13;;;11.93;;
54384;SDS011;40284;52.878;5.998;2023-08-06T08:38:29;14.13;;;11.65;;
54384;SDS011;40284;52.878;5.998;2023-08-06T08:40:55;13.40;;;11.20;;
54384;SDS011;40284;52.878;5.998;2023-08-06T08:43:21;13.65;;;12.25;;
54384;SDS011;40284;52.878;5.998;2023-08-06T08:45:49;18.60;;;14.18;;
54384;SDS011;40284;52.878;5.998;2023-08-06T08:48:16;11.80;;;10.40;;
54384;SDS011;40284;52.878;5.998;2023-08-06T08:50:44;10.82;;;9.73;;
54384;SDS011;40284;52.878;5.998;2023-08-06T08:53:10;11.35;;;10.25;;
54384;SDS011;40284;52.878;5.998;2023-08-06T08:55:37;10.90;;;9.85;;
54384;SDS011;40284;52.878;5.998;2023-08-06T08:58:03;12.43;;;11.10;;
54384;SDS011;40284;52.878;5.998;2023-08-06T09:00:30;10.95;;;9.88;;
54384;SDS011;40284;52.878;5.998;2023-08-06T09:02:56;13.23;;;9.95;;
54384;SDS011;40284;52.878;5.998;2023-08-06T09:05:25;13.10;;;9.75;;
54384;SDS011;40284;52.878;5.998;2023-08-06T09:07:52;12.07;;;10.27;;
54384;SDS011;40284;52.878;5.998;2023-08-06T09:10:18;11.32;;;10.10;;
54384;SDS011;40284;52.878;5.998;2023-08-06T09:12:46;11.52;;;9.85;;
54384;SDS011;40284;52.878;5.998;2023-08-06T09:15:12;10.45;;;9.35;;
54384;SDS011;40284;52.878;5.998;2023-08-06T09:17:39;13.05;;;8.98;;
54384;SDS011;40284;52.878;5.998;2023-08-06T09:20:08;11.13;;;10.07;;
54384;SDS011;40284;52.878;5.998;2023-08-06T09:22:35;11.38;;;9.20;;
54384;SDS011;40284;52.878;5.998;2023-08-06T09:25:01;13.10;;;9.23;;
54384;SDS011;40284;52.878;5.998;2023-08-06T09:27:28;10.30;;;8.63;;
54384;SDS011;40284;52.878;5.998;2023-08-06T09:29:54;8.90;;;8.00;;
54384;SDS011;40284;52.878;5.998;2023-08-06T09:32:20;8.93;;;8.15;;
54384;SDS011;40284;52.878;5.998;2023-08-06T09:34:47;8.82;;;7.93;;
54384;SDS011;40284;52.878;5.998;2023-08-06T09:37:20;10.18;;;9.05;;
54384;SDS011;40284;52.878;5.998;2023-08-06T09:39:47;8.23;;;7.38;;
54384;SDS011;40284;52.878;5.998;2023-08-06T09:42:14;9.30;;;6.88;;
54384;SDS011;40284;52.878;5.998;2023-08-06T09:44:40;11.50;;;7.97;;
54384;SDS011;40284;52.878;5.998;2023-08-06T09:47:06;10.90;;;8.55;;
54384;SDS011;40284;52.878;5.998;2023-08-06T09:51:59;12.15;;;7.75;;
54384;SDS011;40284;52.878;5.998;2023-08-06T09:54:28;8.40;;;7.60;;
54384;SDS011;40284;52.878;5.998;2023-08-06T09:56:55;9.75;;;7.78;;
54384;SDS011;40284;52.878;5.998;2023-08-06T09:59:25;8.98;;;6.70;;
54384;SDS011;40284;52.878;5.998;2023-08-06T10:01:51;7.88;;;6.40;;
54384;SDS011;40284;52.878;5.998;2023-08-06T10:04:19;7.68;;;6.10;;
54384;SDS011;40284;52.878;5.998;2023-08-06T10:06:49;7.15;;;6.45;;
54384;SDS011;40284;52.878;5.998;2023-08-06T10:09:15;6.00;;;5.40;;
54384;SDS011;40284;52.878;5.998;2023-08-06T10:11:44;8.45;;;5.43;;
54384;SDS011;40284;52.878;5.998;2023-08-06T10:14:16;7.40;;;5.80;;
54384;SDS011;40284;52.878;5.998;2023-08-06T10:16:44;6.88;;;5.82;;
54384;SDS011;40284;52.878;5.998;2023-08-06T10:19:10;9.30;;;5.38;;
54384;SDS011;40284;52.878;5.998;2023-08-06T10:21:38;6.50;;;5.82;;
54384;SDS011;40284;52.878;5.998;2023-08-06T10:24:06;7.57;;;5.75;;
54384;SDS011;40284;52.878;5.998;2023-08-06T10:26:36;7.75;;;4.88;;
54384;SDS011;40284;52.878;5.998;2023-08-06T10:29:48;8.52;;;5.05;;
54384;SDS011;40284;52.878;5.998;2023-08-06T10:31:55;6.40;;;4.22;;
54384;SDS011;40284;52.878;5.998;2023-08-06T10:34:25;4.78;;;3.67;;
54384;SDS011;40284;52.878;5.998;2023-08-06T10:36:53;7.20;;;3.70;;
54384;SDS011;40284;52.878;5.998;2023-08-06T10:39:20;5.13;;;3.17;;
54384;SDS011;40284;52.878;5.998;2023-08-06T10:41:46;6.90;;;4.15;;
54384;SDS011;40284;52.878;5.998;2023-08-06T10:44:12;6.32;;;3.42;;
54384;SDS011;40284;52.878;5.998;2023-08-06T10:46:39;3.42;;;2.95;;
54384;SDS011;40284;52.878;5.998;2023-08-06T10:49:05;3.70;;;3.28;;
54384;SDS011;40284;52.878;5.998;2023-08-06T10:51:32;5.70;;;3.45;;
54384;SDS011;40284;52.878;5.998;2023-08-06T10:53:58;4.45;;;2.95;;
54384;SDS011;40284;52.878;5.998;2023-08-06T10:56:25;5.10;;;3.03;;
54384;SDS011;40284;52.878;5.998;2023-08-06T10:58:55;4.57;;;3.33;;
54384;SDS011;40284;52.878;5.998;2023-08-06T11:01:22;5.60;;;3.65;;
54384;SDS011;40284;52.878;5.998;2023-08-06T11:03:48;4.85;;;3.45;;
54384;SDS011;40284;52.878;5.998;2023-08-06T11:06:18;3.90;;;3.33;;
54384;SDS011;40284;52.878;5.998;2023-08-06T11:08:52;3.35;;;2.90;;
54384;SDS011;40284;52.878;5.998;2023-08-06T11:11:19;4.85;;;3.58;;
54384;SDS011;40284;52.878;5.998;2023-08-06T11:13:46;6.35;;;4.28;;
54384;SDS011;40284;52.878;5.998;2023-08-06T11:16:15;6.15;;;3.70;;
54384;SDS011;40284;52.878;5.998;2023-08-06T11:18:41;6.43;;;3.20;;
54384;SDS011;40284;52.878;5.998;2023-08-06T11:21:08;3.80;;;3.20;;
54384;SDS011;40284;52.878;5.998;2023-08-06T11:23:34;3.67;;;3.33;;
54384;SDS011;40284;52.878;5.998;2023-08-06T11:26:01;5.28;;;3.70;;
54384;SDS011;40284;52.878;5.998;2023-08-06T11:28:28;3.50;;;3.00;;
54384;SDS011;40284;52.878;5.998;2023-08-06T11:30:54;4.22;;;3.10;;
54384;SDS011;40284;52.878;5.998;2023-08-06T11:33:22;5.13;;;3.05;;
54384;SDS011;40284;52.878;5.998;2023-08-06T11:35:50;6.32;;;2.80;;
54384;SDS011;40284;52.878;5.998;2023-08-06T11:38:17;3.95;;;2.97;;
54384;SDS011;40284;52.878;5.998;2023-08-06T11:40:50;4.50;;;2.88;;
54384;SDS011;40284;52.878;5.998;2023-08-06T11:45:43;4.30;;;2.22;;
54384;SDS011;40284;52.878;5.998;2023-08-06T11:48:09;3.58;;;2.53;;
54384;SDS011;40284;52.878;5.998;2023-08-06T11:50:36;3.55;;;2.33;;
54384;SDS011;40284;52.878;5.998;2023-08-06T11:53:06;4.50;;;2.50;;
54384;SDS011;40284;52.878;5.998;2023-08-06T11:55:32;5.45;;;2.30;;
54384;SDS011;40284;52.878;5.998;2023-08-06T11:57:59;3.55;;;2.65;;
54384;SDS011;40284;52.878;5.998;2023-08-06T12:00:28;3.13;;;2.25;;
54384;SDS011;40284;52.878;5.998;2023-08-06T12:02:54;3.45;;;2.33;;
54384;SDS011;40284;52.878;5.998;2023-08-06T12:05:22;2.83;;;2.38;;
54384;SDS011;40284;52.878;5.998;2023-08-06T12:08:00;4.90;;;2.45;;
54384;SDS011;40284;52.878;5.998;2023-08-06T12:10:27;3.28;;;2.35;;
54384;SDS011;40284;52.878;5.998;2023-08-06T12:12:54;2.85;;;2.28;;
54384;SDS011;40284;52.878;5.998;2023-08-06T12:15:20;2.72;;;2.00;;
54384;SDS011;40284;52.878;5.998;2023-08-06T12:17:47;4.53;;;2.78;;
54384;SDS011;40284;52.878;5.998;2023-08-06T12:20:13;8.38;;;3.10;;
54384;SDS011;40284;52.878;5.998;2023-08-06T12:22:38;9.35;;;3.08;;
54384;SDS011;40284;52.878;5.998;2023-08-06T12:25:08;8.23;;;3.40;;
54384;SDS011;40284;52.878;5.998;2023-08-06T12:27:43;6.20;;;2.78;;
54384;SDS011;40284;52.878;5.998;2023-08-06T12:30:10;4.25;;;2.85;;
54384;SDS011;40284;52.878;5.998;2023-08-06T12:32:37;7.05;;;3.13;;
54384;SDS011;40284;52.878;5.998;2023-08-06T12:35:03;7.53;;;3.40;;
54384;SDS011;40284;52.878;5.998;2023-08-06T12:37:30;11.40;;;4.97;;
54384;SDS011;40284;52.878;5.998;2023-08-06T12:39:56;9.85;;;3.67;;
54384;SDS011;40284;52.878;5.998;2023-08-06T12:42:22;7.10;;;3.92;;
54384;SDS011;40284;52.878;5.998;2023-08-06T12:44:49;4.93;;;3.42;;
54384;SDS011;40284;52.878;5.998;2023-08-06T12:47:15;14.05;;;5.72;;
54384;SDS011;40284;52.878;5.998;2023-08-06T12:49:42;4.50;;;3.58;;
54384;SDS011;40284;52.878;5.998;2023-08-06T12:52:08;6.82;;;3.72;;
54384;SDS011;40284;52.878;5.998;2023-08-06T12:54:34;5.95;;;4.00;;
54384;SDS011;40284;52.878;5.998;2023-08-06T12:57:03;6.72;;;3.80;;
54384;SDS011;40284;52.878;5.998;2023-08-06T12:59:30;6.85;;;3.33;;
54384;SDS011;40284;52.878;5.998;2023-08-06T13:01:58;5.93;;;3.90;;
54384;SDS011;40284;52.878;5.998;2023-08-06T13:04:24;6.15;;;3.97;;
54384;SDS011;40284;52.878;5.998;2023-08-06T13:06:50;8.52;;;4.30;;
54384;SDS011;40284;52.878;5.998;2023-08-06T13:09:16;5.05;;;3.90;;
54384;SDS011;40284;52.878;5.998;2023-08-06T13:11:42;8.93;;;4.18;;
54384;SDS011;40284;52.878;5.998;2023-08-06T13:14:11;5.65;;;4.97;;
54384;SDS011;40284;52.878;5.998;2023-08-06T13:16:39;9.32;;;5.47;;
54384;SDS011;40284;52.878;5.998;2023-08-06T13:19:05;6.95;;;5.90;;
54384;SDS011;40284;52.878;5.998;2023-08-06T13:21:57;8.93;;;6.53;;
54384;SDS011;40284;52.878;5.998;2023-08-06T13:24:26;9.38;;;6.18;;
54384;SDS011;40284;52.878;5.998;2023-08-06T13:26:52;7.32;;;5.78;;
54384;SDS011;40284;52.878;5.998;2023-08-06T13:29:18;7.05;;;5.65;;
54384;SDS011;40284;52.878;5.998;2023-08-06T13:31:44;7.00;;;5.63;;
54384;SDS011;40284;52.878;5.998;2023-08-06T13:34:10;8.77;;;5.85;;
54384;SDS011;40284;52.878;5.998;2023-08-06T13:36:37;6.82;;;5.30;;
54384;SDS011;40284;52.878;5.998;2023-08-06T13:39:03;8.60;;;5.63;;
54384;SDS011;40284;52.878;5.998;2023-08-06T13:41:30;7.20;;;5.20;;
54384;SDS011;40284;52.878;5.998;2023-08-06T13:43:56;8.20;;;5.03;;
54384;SDS011;40284;52.878;5.998;2023-08-06T13:46:22;6.97;;;4.85;;
54384;SDS011;40284;52.878;5.998;2023-08-06T13:48:49;7.32;;;4.75;;
54384;SDS011;40284;52.878;5.998;2023-08-06T13:51:18;7.35;;;5.35;;
54384;SDS011;40284;52.878;5.998;2023-08-06T13:53:44;12.48;;;6.72;;
54384;SDS011;40284;52.878;5.998;2023-08-06T13:56:11;4.95;;;4.35;;
54384;SDS011;40284;52.878;5.998;2023-08-06T13:58:37;10.27;;;6.00;;
54384;SDS011;40284;52.878;5.998;2023-08-06T14:01:03;10.43;;;6.60;;
54384;SDS011;40284;52.878;5.998;2023-08-06T14:03:29;7.35;;;5.38;;
54384;SDS011;40284;52.878;5.998;2023-08-06T14:05:55;14.40;;;5.45;;
54384;SDS011;40284;52.878;5.998;2023-08-06T14:08:22;7.68;;;4.43;;
54384;SDS011;40284;52.878;5.998;2023-08-06T14:10:48;5.95;;;3.85;;
54384;SDS011;40284;52.878;5.998;2023-08-06T14:13:14;7.90;;;3.30;;
54384;SDS011;40284;52.878;5.998;2023-08-06T14:15:40;4.78;;;4.28;;
54384;SDS011;40284;52.878;5.998;2023-08-06T14:18:07;6.78;;;4.70;;
54384;SDS011;40284;52.878;5.998;2023-08-06T14:20:34;6.97;;;4.97;;
54384;SDS011;40284;52.878;5.998;2023-08-06T14:23:00;6.43;;;4.75;;
54384;SDS011;40284;52.878;5.998;2023-08-06T14:25:26;5.68;;;4.00;;
54384;SDS011;40284;52.878;5.998;2023-08-06T14:27:52;5.60;;;3.70;;
54384;SDS011;40284;52.878;5.998;2023-08-06T14:30:18;5.55;;;3.42;;
54384;SDS011;40284;52.878;5.998;2023-08-06T14:32:45;6.40;;;3.72;;
54384;SDS011;40284;52.878;5.998;2023-08-06T14:35:11;4.22;;;3.17;;